Time;durP1;ratioP1;P1;durP2;ratioP2;P2;SDS_P1;SDS_P2;PMS_P1;PMS_P2;Temp;Humidity;BMP_temperature;BMP_pressure;BME280_temperature;BME280_humidity;BME280_pressure;Samples;Min_cycle;Max_cycle;Signal;HPM_P1;HPM_P2
2021/03/06 00:02:08;;;;;;;4.70;4.30;;;3.90;64.70;;;;;;4962503;28;20688;-91
2021/03/06 00:04:34;;;;;;;4.77;4.37;;;3.90;63.80;;;;;;4979590;28;20187;-88
2021/03/06 00:07:00;;;;;;;4.57;4.07;;;3.80;64.20;;;;;;4979661;28;20183;-89
2021/03/06 00:09:25;;;;;;;4.87;4.33;;;3.70;65.30;;;;;;4979488;28;20202;-91
2021/03/06 00:11:51;;;;;;;5.17;4.30;;;3.60;66.20;;;;;;4979621;28;20190;-90
2021/03/06 00:14:16;;;;;;;5.10;4.23;;;3.60;62.90;;;;;;4979709;28;20276;-90
2021/03/06 00:16:42;;;;;;;5.00;4.50;;;3.50;63.50;;;;;;4980216;28;20214;-91
2021/03/06 00:19:08;;;;;;;4.47;3.93;;;3.40;63.90;;;;;;4995503;28;20251;-90
2021/03/06 00:21:33;;;;;;;4.90;4.40;;;3.30;64.30;;;;;;4980397;28;20187;-89
2021/03/06 00:23:59;;;;;;;4.17;3.87;;;3.10;66.00;;;;;;4980341;28;20558;-90
2021/03/06 00:26:25;;;;;;;4.93;4.27;;;3.10;66.10;;;;;;4980332;28;20202;-90
2021/03/06 00:28:50;;;;;;;5.17;4.60;;;3.00;65.00;;;;;;4979150;28;20191;-90
2021/03/06 00:31:16;;;;;;;4.67;4.27;;;2.70;66.90;;;;;;4978849;28;20207;-90
2021/03/06 00:33:41;;;;;;;4.97;4.00;;;2.60;67.30;;;;;;4979876;28;20289;-89
2021/03/06 00:36:07;;;;;;;5.07;4.40;;;2.50;69.00;;;;;;4980125;28;20217;-90
2021/03/06 00:38:33;;;;;;;4.60;4.13;;;2.50;68.40;;;;;;4979790;28;20183;-90
2021/03/06 00:40:59;;;;;;;5.13;4.30;;;2.50;68.20;;;;;;4962489;28;20717;-91
2021/03/06 00:43:24;;;;;;;5.13;4.27;;;2.50;68.80;;;;;;4979320;28;20214;-90
2021/03/06 00:45:50;;;;;;;9.53;4.50;;;2.40;68.20;;;;;;4962272;28;20191;-90
2021/03/06 00:48:16;;;;;;;4.97;4.10;;;2.20;68.40;;;;;;4978703;28;20183;-90
2021/03/06 00:50:41;;;;;;;4.07;3.67;;;2.20;69.30;;;;;;4979793;28;20322;-91
2021/03/06 00:53:07;;;;;;;4.67;4.23;;;2.30;70.90;;;;;;4979646;28;20207;-91
2021/03/06 00:55:33;;;;;;;5.37;4.03;;;2.40;69.10;;;;;;4982329;28;20187;-90
2021/03/06 00:57:58;;;;;;;4.90;3.80;;;2.40;69.00;;;;;;4983771;28;20194;-90
2021/03/06 01:00:24;;;;;;;4.33;3.90;;;2.50;68.80;;;;;;4994829;28;20586;-90
2021/03/06 01:02:50;;;;;;;5.53;4.50;;;2.60;69.20;;;;;;4979420;28;20193;-91
2021/03/06 01:05:16;;;;;;;5.43;4.10;;;2.60;67.90;;;;;;4995081;28;20194;-89
2021/03/06 01:07:42;;;;;;;5.13;4.63;;;2.60;66.80;;;;;;4980057;28;20182;-90
2021/03/06 01:10:18;;;;;;;4.17;3.77;;;2.50;66.00;;;;;;4979808;28;20697;-89
2021/03/06 01:12:43;;;;;;;4.53;3.93;;;2.30;68.00;;;;;;4994775;28;20264;-90
2021/03/06 01:15:10;;;;;;;5.97;4.33;;;2.30;67.90;;;;;;4978630;28;20282;-90
2021/03/06 01:17:35;;;;;;;4.53;4.10;;;2.20;66.00;;;;;;4970006;28;20187;-90
2021/03/06 01:20:02;;;;;;;5.60;4.67;;;2.20;66.70;;;;;;4986306;28;20218;-90
2021/03/06 01:22:27;;;;;;;4.40;4.00;;;2.10;66.30;;;;;;4990827;28;20183;-90
2021/03/06 01:24:53;;;;;;;4.97;4.13;;;2.10;66.90;;;;;;4992573;28;20261;-90
2021/03/06 01:27:19;;;;;;;5.10;4.37;;;2.20;66.70;;;;;;4976796;28;20183;-90
2021/03/06 01:29:44;;;;;;;5.13;4.63;;;2.20;66.70;;;;;;4993948;28;20211;-90
2021/03/06 01:32:11;;;;;;;5.43;4.53;;;2.20;65.10;;;;;;4995434;28;20194;-90
2021/03/06 01:34:37;;;;;;;4.63;4.13;;;2.20;66.00;;;;;;4980448;28;20226;-90
2021/03/06 01:37:02;;;;;;;4.97;4.47;;;2.10;65.10;;;;;;4979727;28;20547;-90
2021/03/06 01:39:28;;;;;;;4.50;4.10;;;2.10;66.60;;;;;;4979131;28;20199;-90
2021/03/06 01:41:54;;;;;;;5.07;4.63;;;2.10;67.20;;;;;;4979025;28;20191;-90
2021/03/06 01:44:19;;;;;;;5.07;4.57;;;2.10;67.40;;;;;;4994069;28;20274;-90
2021/03/06 01:46:45;;;;;;;4.93;4.43;;;2.10;66.90;;;;;;4977586;28;20191;-90
2021/03/06 01:49:11;;;;;;;5.47;4.87;;;2.20;68.80;;;;;;4994178;28;20724;-90
2021/03/06 01:51:37;;;;;;;5.97;4.40;;;2.10;66.00;;;;;;4979092;28;20183;-91
2021/03/06 01:54:04;;;;;;;5.27;4.70;;;2.20;66.50;;;;;;4978828;28;20207;-90
2021/03/06 01:56:31;;;;;;;5.97;4.70;;;2.20;66.00;;;;;;4982652;28;20185;-90
2021/03/06 01:58:58;;;;;;;5.40;4.60;;;2.20;66.40;;;;;;4981185;28;20197;-90
2021/03/06 02:01:24;;;;;;;6.10;4.83;;;2.20;66.20;;;;;;4981309;28;20720;-91
2021/03/06 02:03:50;;;;;;;4.70;4.23;;;2.10;66.20;;;;;;4982593;28;20195;-89
2021/03/06 02:06:17;;;;;;;5.50;5.00;;;2.10;66.60;;;;;;4982908;28;20210;-90
2021/03/06 02:08:43;;;;;;;6.93;4.40;;;2.00;66.30;;;;;;4981382;28;20191;-89
2021/03/06 02:11:09;;;;;;;6.47;5.13;;;1.80;65.90;;;;;;4997836;28;20203;-90
2021/03/06 02:13:54;;;;;;;5.27;4.73;;;1.70;67.00;;;;;;4997314;28;20210;-90
2021/03/06 02:16:40;;;;;;;5.63;5.03;;;1.60;67.80;;;;;;4982334;28;20258;-91
2021/03/06 02:19:23;;;;;;;5.63;4.53;;;1.60;67.60;;;;;;4982023;28;20211;-90
2021/03/06 02:22:15;;;;;;;5.90;5.30;;;1.50;68.40;;;;;;4987899;28;20230;-90
2021/03/06 02:25:19;;;;;;;5.00;4.50;;;1.50;69.00;;;;;;4982169;28;20183;-90
2021/03/06 02:28:03;;;;;;;6.43;5.20;;;1.30;68.30;;;;;;4997217;28;20179;-90
2021/03/06 02:30:30;;;;;;;5.67;4.83;;;1.20;69.00;;;;;;4982426;28;20218;-90
2021/03/06 02:32:57;;;;;;;6.43;5.13;;;1.20;69.70;;;;;;4982039;28;20206;-91
2021/03/06 02:35:29;;;;;;;5.90;5.30;;;1.20;69.20;;;;;;4982270;28;20242;-89
2021/03/06 02:38:02;;;;;;;5.80;4.63;;;1.20;69.30;;;;;;4982235;28;20163;-89
2021/03/06 02:40:30;;;;;;;6.23;5.27;;;1.20;69.80;;;;;;4982064;28;20199;-90
2021/03/06 02:42:57;;;;;;;5.57;4.83;;;1.20;69.20;;;;;;4964220;28;20278;-90
2021/03/06 02:45:25;;;;;;;7.83;5.33;;;1.30;69.50;;;;;;4981930;28;20187;-90
2021/03/06 02:47:51;;;;;;;6.33;5.13;;;1.30;69.40;;;;;;4980402;28;20225;-89
2021/03/06 02:50:17;;;;;;;6.37;5.10;;;1.30;68.90;;;;;;4981597;28;20226;-90
2021/03/06 02:52:43;;;;;;;7.00;4.90;;;1.30;68.90;;;;;;4981550;28;20215;-90
2021/03/06 02:55:10;;;;;;;5.43;4.83;;;1.20;69.60;;;;;;4981584;28;20183;-90
2021/03/06 02:57:44;;;;;;;6.03;5.07;;;1.20;69.00;;;;;;4980465;28;20183;-90
2021/03/06 03:00:10;;;;;;;9.30;5.50;;;1.20;69.40;;;;;;4996802;28;20222;-90
2021/03/06 03:03:05;;;;;;;5.17;4.47;;;1.10;68.70;;;;;;4981639;28;20183;-90
2021/03/06 03:05:47;;;;;;;5.73;4.33;;;1.20;71.20;;;;;;4981591;28;20177;-91
2021/03/06 03:08:39;;;;;;;6.07;5.13;;;1.30;68.60;;;;;;4981751;28;20171;-90
2021/03/06 03:11:09;;;;;;;5.17;4.67;;;1.30;68.30;;;;;;4980994;28;20252;-90
2021/03/06 03:13:42;;;;;;;5.20;4.70;;;1.30;69.60;;;;;;4995708;28;20225;-90
2021/03/06 03:16:17;;;;;;;5.20;4.30;;;1.40;69.50;;;;;;4981224;28;20258;-90
2021/03/06 03:19:24;;;;;;;5.77;4.60;;;1.40;68.40;;;;;;4981514;28;20171;-90
2021/03/06 03:21:53;;;;;;;5.40;4.50;;;1.30;67.50;;;;;;4981230;28;20270;-90
2021/03/06 03:24:21;;;;;;;7.43;4.87;;;1.10;68.00;;;;;;4981233;28;20380;-90
2021/03/06 03:26:48;;;;;;;5.87;5.27;;;1.00;68.90;;;;;;4981181;28;20186;-90
2021/03/06 03:29:16;;;;;;;5.47;4.53;;;0.90;69.20;;;;;;4980747;28;20226;-90
2021/03/06 03:31:50;;;;;;;5.50;4.90;;;0.90;70.50;;;;;;4981149;28;20210;-90
2021/03/06 03:34:20;;;;;;;5.10;4.60;;;0.80;69.80;;;;;;4981367;28;20210;-90
2021/03/06 03:36:51;;;;;;;5.30;4.80;;;0.70;69.90;;;;;;4964329;28;20208;-91
2021/03/06 03:39:17;;;;;;;6.10;3.87;;;0.80;70.40;;;;;;4980930;28;20167;-89
2021/03/06 03:41:45;;;;;;;6.93;5.30;;;0.80;70.50;;;;;;4980984;28;20246;-90
2021/03/06 03:44:12;;;;;;;5.87;5.27;;;0.70;68.40;;;;;;4979115;28;20187;-89
2021/03/06 03:46:39;;;;;;;5.47;4.97;;;0.60;69.60;;;;;;4983218;28;20186;-89
2021/03/06 03:49:07;;;;;;;7.20;4.73;;;0.60;69.60;;;;;;4984678;28;20186;-90
2021/03/06 03:51:33;;;;;;;4.67;4.27;;;0.50;70.70;;;;;;4979187;28;20185;-90
2021/03/06 03:54:00;;;;;;;5.37;4.87;;;0.50;69.70;;;;;;4978953;28;20600;-91
2021/03/06 03:56:28;;;;;;;6.03;4.47;;;0.50;69.60;;;;;;4980398;28;20176;-90
2021/03/06 03:58:54;;;;;;;5.17;4.43;;;0.50;70.20;;;;;;4980302;28;20219;-91
2021/03/06 04:01:19;;;;;;;6.80;4.60;;;0.60;70.40;;;;;;4980248;28;20688;-90
2021/03/06 04:03:45;;;;;;;5.53;4.37;;;0.70;70.10;;;;;;4962707;28;20187;-90
2021/03/06 04:06:11;;;;;;;5.43;4.37;;;0.70;69.90;;;;;;4980131;28;20544;-90
2021/03/06 04:08:36;;;;;;;5.40;4.20;;;0.80;71.80;;;;;;4962658;28;20187;-90
2021/03/06 04:11:02;;;;;;;6.10;4.70;;;0.80;67.60;;;;;;4962716;28;20219;-90
2021/03/06 04:13:28;;;;;;;4.87;4.20;;;0.80;69.50;;;;;;4980160;28;20218;-90
2021/03/06 04:15:54;;;;;;;4.27;3.80;;;0.80;70.00;;;;;;4980351;28;20187;-90
2021/03/06 04:18:19;;;;;;;5.83;4.23;;;0.90;70.40;;;;;;4979361;28;20191;-90
2021/03/06 04:20:45;;;;;;;5.90;4.63;;;0.80;68.10;;;;;;4979894;28;20261;-90
2021/03/06 04:23:11;;;;;;;5.43;4.10;;;0.80;67.60;;;;;;4978888;28;20191;-90
2021/03/06 04:25:37;;;;;;;4.93;4.13;;;0.70;68.80;;;;;;4979374;28;20653;-90
2021/03/06 04:28:02;;;;;;;6.60;4.50;;;0.80;68.00;;;;;;4980574;28;20179;-90
2021/03/06 04:30:28;;;;;;;5.07;4.57;;;0.80;68.60;;;;;;4980553;28;20209;-90
2021/03/06 04:32:54;;;;;;;9.53;4.43;;;0.70;68.50;;;;;;4979645;28;20301;-90
2021/03/06 04:35:20;;;;;;;4.43;4.03;;;0.70;68.70;;;;;;4979214;28;20186;-91
2021/03/06 04:37:45;;;;;;;4.97;4.30;;;0.70;69.60;;;;;;4980193;28;20531;-91
2021/03/06 04:40:13;;;;;;;4.60;4.13;;;0.70;70.20;;;;;;4995138;28;20211;-91
2021/03/06 04:42:39;;;;;;;5.53;4.37;;;0.80;70.50;;;;;;4981280;28;20183;-90
2021/03/06 04:45:06;;;;;;;4.80;4.30;;;0.80;67.60;;;;;;4981228;28;20269;-90
2021/03/06 04:47:32;;;;;;;6.43;4.63;;;0.80;69.30;;;;;;4964130;28;20191;-91
2021/03/06 04:49:58;;;;;;;5.50;4.33;;;0.70;67.30;;;;;;4981773;28;20290;-90
2021/03/06 04:52:24;;;;;;;4.27;3.87;;;0.70;69.20;;;;;;4980872;28;20409;-90
2021/03/06 04:54:49;;;;;;;5.60;4.07;;;0.80;68.90;;;;;;4979724;28;20221;-90
2021/03/06 04:57:16;;;;;;;4.60;3.87;;;0.80;67.80;;;;;;4979857;28;20183;-90
2021/03/06 04:59:42;;;;;;;5.83;4.30;;;0.70;68.00;;;;;;4978366;28;20276;-91
2021/03/06 05:02:08;;;;;;;5.43;4.47;;;0.60;67.90;;;;;;4978757;28;20182;-91
2021/03/06 05:04:34;;;;;;;5.23;4.83;;;0.70;69.60;;;;;;4978238;28;20259;-90
2021/03/06 05:07:00;;;;;;;5.20;4.20;;;0.70;69.50;;;;;;4978680;28;20249;-90
2021/03/06 05:09:26;;;;;;;4.50;4.10;;;0.70;67.60;;;;;;4979817;28;20549;-91
2021/03/06 05:11:51;;;;;;;5.70;4.37;;;0.60;67.90;;;;;;4980989;28;20195;-90
2021/03/06 05:14:17;;;;;;;5.63;4.33;;;0.50;68.20;;;;;;4985896;28;20266;-90
2021/03/06 05:16:43;;;;;;;7.00;4.50;;;0.50;68.90;;;;;;4993638;28;20187;-90
2021/03/06 05:19:09;;;;;;;5.00;4.50;;;0.50;69.20;;;;;;4977225;28;20233;-89
2021/03/06 05:21:36;;;;;;;4.60;4.17;;;0.60;68.90;;;;;;4961350;28;20191;-89
2021/03/06 05:24:03;;;;;;;4.50;4.10;;;0.40;67.90;;;;;;4975464;28;20184;-90
2021/03/06 05:26:29;;;;;;;4.60;4.17;;;0.40;68.80;;;;;;4958379;29;20195;-91
2021/03/06 05:28:54;;;;;;;4.80;4.13;;;0.30;69.40;;;;;;4942533;29;20266;-91
2021/03/06 05:31:20;;;;;;;4.30;3.90;;;0.40;70.60;;;;;;4978543;28;20294;-89
2021/03/06 05:33:46;;;;;;;5.13;4.20;;;0.40;69.00;;;;;;4962424;28;20266;-91
2021/03/06 05:36:11;;;;;;;4.33;3.93;;;0.50;70.10;;;;;;4979723;28;20205;-89
2021/03/06 05:38:37;;;;;;;4.87;4.03;;;0.50;71.60;;;;;;4965286;28;20226;-89
2021/03/06 05:41:03;;;;;;;5.93;4.00;;;0.60;70.50;;;;;;4977837;28;20215;-89
2021/03/06 05:43:29;;;;;;;4.03;3.63;;;0.80;68.80;;;;;;4997201;28;20191;-89
2021/03/06 05:45:56;;;;;;;4.40;4.00;;;0.70;69.00;;;;;;4982602;28;20175;-91
2021/03/06 05:48:22;;;;;;;5.47;4.20;;;0.70;68.40;;;;;;5000209;28;20656;-90
2021/03/06 05:50:49;;;;;;;4.40;3.83;;;0.70;68.20;;;;;;4982122;28;20631;-92
2021/03/06 05:53:19;;;;;;;4.77;4.20;;;0.70;68.50;;;;;;4983980;28;20572;-89
2021/03/06 05:55:50;;;;;;;4.70;4.30;;;0.70;69.20;;;;;;4983526;28;20175;-90
2021/03/06 05:58:21;;;;;;;4.10;3.70;;;0.60;67.40;;;;;;4983988;28;20335;-90
2021/03/06 06:00:48;;;;;;;6.33;4.53;;;0.60;68.50;;;;;;4982962;28;20218;-89
2021/03/06 06:03:16;;;;;;;4.93;4.40;;;0.60;68.50;;;;;;4998460;28;20183;-90
2021/03/06 06:05:43;;;;;;;4.40;4.00;;;0.50;67.70;;;;;;4983359;28;20183;-90
2021/03/06 06:08:09;;;;;;;5.17;4.67;;;0.40;68.80;;;;;;4985629;28;20186;-90
2021/03/06 06:10:35;;;;;;;6.40;4.93;;;0.40;68.30;;;;;;4984773;28;20733;-91
2021/03/06 06:13:01;;;;;;;5.17;4.23;;;0.40;68.60;;;;;;5000013;28;20270;-90
2021/03/06 06:15:27;;;;;;;5.70;4.97;;;0.40;70.30;;;;;;4984703;28;20182;-90
2021/03/06 06:17:54;;;;;;;5.60;4.10;;;0.40;69.00;;;;;;4983312;28;20187;-90
2021/03/06 06:20:22;;;;;;;6.63;4.33;;;0.50;67.80;;;;;;4985653;28;20191;-90
2021/03/06 06:23:06;;;;;;;5.73;4.90;;;0.20;67.90;;;;;;4982643;28;20229;-90
2021/03/06 06:25:33;;;;;;;5.77;4.83;;;0.10;68.80;;;;;;4982520;28;20175;-90
2021/03/06 06:28:03;;;;;;;5.83;4.67;;;0.00;69.20;;;;;;4983014;28;20179;-90
2021/03/06 06:30:30;;;;;;;5.80;4.67;;;0.00;69.30;;;;;;4984221;28;20207;-91
2021/03/06 06:32:56;;;;;;;6.20;4.77;;;-0.10;70.40;;;;;;4984174;28;20198;-92
2021/03/06 06:35:22;;;;;;;4.37;3.97;;;0.10;72.00;;;;;;4984128;28;20229;-90
2021/03/06 06:38:14;;;;;;;6.37;4.80;;;0.10;71.80;;;;;;4987908;28;20182;-89
2021/03/06 06:40:39;;;;;;;5.43;4.80;;;0.20;70.70;;;;;;4985589;28;20238;-90
2021/03/06 06:43:23;;;;;;;6.07;4.50;;;0.20;68.80;;;;;;4983938;28;20631;-91
2021/03/06 06:45:49;;;;;;;5.47;4.60;;;0.20;69.20;;;;;;4984056;28;20187;-89
2021/03/06 06:48:15;;;;;;;6.77;4.70;;;0.20;70.40;;;;;;4998884;28;20194;-92
2021/03/06 06:50:41;;;;;;;5.13;4.63;;;0.20;68.90;;;;;;4983714;28;20230;-90
2021/03/06 06:53:21;;;;;;;5.50;4.77;;;0.30;69.80;;;;;;4984791;28;20211;-90
2021/03/06 06:55:46;;;;;;;5.30;4.10;;;0.30;68.60;;;;;;4998126;28;20191;-90
2021/03/06 06:58:12;;;;;;;5.33;4.10;;;0.40;68.00;;;;;;5002426;28;20627;-90
2021/03/06 07:00:38;;;;;;;5.10;4.00;;;0.30;67.90;;;;;;4987653;28;20239;-89
2021/03/06 07:03:05;;;;;;;4.77;3.77;;;0.30;68.40;;;;;;4988738;28;20191;-90
2021/03/06 07:05:39;;;;;;;6.70;4.53;;;0.40;69.50;;;;;;4989199;28;20213;-90
2021/03/06 07:08:07;;;;;;;18.03;12.13;;;0.40;68.10;;;;;;4985977;28;20246;-91
2021/03/06 07:10:40;;;;;;;11.40;8.13;;;0.40;68.30;;;;;;4983629;28;20262;-90
2021/03/06 07:13:11;;;;;;;7.40;6.23;;;0.50;69.00;;;;;;4983973;28;20210;-90
2021/03/06 07:15:41;;;;;;;10.00;7.57;;;0.50;67.60;;;;;;4999007;28;20214;-90
2021/03/06 07:18:18;;;;;;;6.23;4.93;;;0.50;67.60;;;;;;4984766;28;20183;-89
2021/03/06 07:20:45;;;;;;;5.93;5.40;;;0.50;67.00;;;;;;4981365;28;20207;-90
2021/03/06 07:23:12;;;;;;;6.73;5.27;;;0.50;67.30;;;;;;4983486;28;20183;-90
2021/03/06 07:25:38;;;;;;;4.67;4.20;;;0.50;67.40;;;;;;4983289;28;20193;-89
2021/03/06 07:28:04;;;;;;;6.93;4.60;;;0.60;67.10;;;;;;4982796;28;20195;-89
2021/03/06 07:30:30;;;;;;;5.37;4.40;;;0.60;66.90;;;;;;4998205;28;20210;-90
2021/03/06 07:32:57;;;;;;;7.13;5.60;;;0.70;66.40;;;;;;4999872;28;20215;-91
2021/03/06 07:35:24;;;;;;;7.67;5.47;;;0.70;66.10;;;;;;4983778;28;20175;-90
2021/03/06 07:37:58;;;;;;;8.97;7.20;;;0.70;66.70;;;;;;4984295;28;20183;-90
2021/03/06 07:40:29;;;;;;;11.47;10.17;;;0.80;65.50;;;;;;4984824;28;20262;-91
2021/03/06 07:42:58;;;;;;;12.50;7.73;;;0.90;65.90;;;;;;4995700;28;20171;-90
2021/03/06 07:45:26;;;;;;;5.50;5.00;;;1.00;65.70;;;;;;4981962;28;20274;-90
2021/03/06 07:48:12;;;;;;;5.23;4.73;;;1.00;63.90;;;;;;4981274;28;20183;-91
2021/03/06 07:50:40;;;;;;;6.73;4.43;;;0.90;63.90;;;;;;4981040;28;20217;-89
2021/03/06 07:53:07;;;;;;;6.30;4.10;;;0.90;63.20;;;;;;4980163;28;20202;-89
2021/03/06 07:55:35;;;;;;;5.97;4.23;;;1.00;64.60;;;;;;4982035;28;20187;-90
2021/03/06 07:58:20;;;;;;;5.63;4.50;;;1.10;63.90;;;;;;4981729;28;20179;-90
2021/03/06 08:00:54;;;;;;;4.03;3.63;;;1.20;62.30;;;;;;4980903;28;20227;-89
2021/03/06 08:03:33;;;;;;;5.07;4.20;;;1.30;60.90;;;;;;4998764;28;20214;-90
2021/03/06 08:06:00;;;;;;;7.03;3.93;;;1.30;60.60;;;;;;4983242;28;20190;-90
2021/03/06 08:08:31;;;;;;;4.33;3.70;;;1.30;60.70;;;;;;4979963;28;20656;-89
2021/03/06 08:11:18;;;;;;;4.53;3.60;;;1.30;60.00;;;;;;4980462;28;20631;-91
2021/03/06 08:13:51;;;;;;;4.77;4.07;;;1.40;59.80;;;;;;4994417;28;20230;-91
2021/03/06 08:16:28;;;;;;;5.97;4.00;;;1.50;59.90;;;;;;4981144;28;20246;-90
2021/03/06 08:19:16;;;;;;;5.17;4.07;;;1.50;59.20;;;;;;4979092;28;20179;-91
2021/03/06 08:21:49;;;;;;;6.03;4.43;;;1.60;58.70;;;;;;4986248;28;20199;-91
2021/03/06 08:24:15;;;;;;;6.77;4.07;;;1.60;58.90;;;;;;4980316;28;20194;-91
2021/03/06 08:27:11;;;;;;;5.43;4.10;;;1.70;58.20;;;;;;4980404;28;20190;-91
2021/03/06 08:29:38;;;;;;;4.90;4.50;;;1.80;58.40;;;;;;4979213;28;20234;-91
2021/03/06 08:32:13;;;;;;;4.37;3.97;;;1.90;58.60;;;;;;4980665;28;20178;-90
2021/03/06 08:34:49;;;;;;;5.37;4.63;;;2.00;58.00;;;;;;4980345;28;20875;-91
2021/03/06 08:37:21;;;;;;;4.33;3.93;;;2.10;57.30;;;;;;4980179;28;20637;-90
2021/03/06 08:39:50;;;;;;;5.20;4.10;;;2.10;56.80;;;;;;4993717;28;20209;-91
2021/03/06 08:42:18;;;;;;;4.83;4.40;;;2.10;56.40;;;;;;4998511;28;20190;-90
2021/03/06 08:44:45;;;;;;;6.37;4.30;;;2.20;57.20;;;;;;4992891;28;20199;-89
2021/03/06 08:47:11;;;;;;;6.37;5.10;;;2.20;56.60;;;;;;4994208;28;20199;-90
2021/03/06 08:49:37;;;;;;;5.17;4.00;;;2.20;57.10;;;;;;4963490;28;20199;-90
2021/03/06 08:52:03;;;;;;;5.20;4.07;;;2.30;57.20;;;;;;4977415;28;20195;-90
2021/03/06 08:54:40;;;;;;;5.57;4.80;;;2.40;56.20;;;;;;4965178;28;20678;-90
2021/03/06 08:57:26;;;;;;;6.40;4.20;;;2.50;57.20;;;;;;4997439;28;20186;-89
2021/03/06 08:59:53;;;;;;;5.50;4.17;;;2.60;56.10;;;;;;4983148;28;20250;-89
2021/03/06 09:02:25;;;;;;;5.13;4.40;;;2.70;56.10;;;;;;4982623;28;20178;-90
2021/03/06 09:05:12;;;;;;;5.67;4.47;;;2.90;56.10;;;;;;4983059;28;20674;-90
2021/03/06 09:07:41;;;;;;;4.57;4.17;;;2.90;55.50;;;;;;4982808;28;20176;-90
2021/03/06 09:10:15;;;;;;;5.40;4.40;;;2.90;54.70;;;;;;4968081;28;20199;-90
2021/03/06 09:12:42;;;;;;;6.17;4.87;;;3.00;55.10;;;;;;4968398;29;20271;-89
2021/03/06 09:15:09;;;;;;;5.33;4.83;;;3.20;54.60;;;;;;4985741;28;20183;-90
2021/03/06 09:17:35;;;;;;;5.33;4.83;;;3.10;55.40;;;;;;4968882;28;20614;-90
2021/03/06 09:20:06;;;;;;;5.60;4.60;;;3.40;54.40;;;;;;4984811;28;20223;-89
2021/03/06 09:22:43;;;;;;;4.90;4.50;;;3.40;54.30;;;;;;4984430;28;20191;-90
2021/03/06 09:25:10;;;;;;;5.30;4.80;;;3.60;53.70;;;;;;4969715;29;20194;-90
2021/03/06 09:27:46;;;;;;;7.63;4.90;;;3.60;54.10;;;;;;4970150;28;20179;-90
2021/03/06 09:30:27;;;;;;;5.30;4.77;;;3.80;53.50;;;;;;4993006;28;20230;-91
2021/03/06 09:32:53;;;;;;;5.93;4.60;;;3.90;52.90;;;;;;4985753;28;20199;-90
2021/03/06 09:35:20;;;;;;;5.20;4.67;;;4.10;52.80;;;;;;5003276;28;20191;-89
2021/03/06 09:37:46;;;;;;;6.20;4.77;;;4.30;52.20;;;;;;4987970;28;20194;-90
2021/03/06 09:40:22;;;;;;;4.90;4.40;;;4.30;52.10;;;;;;4987394;28;20206;-89
2021/03/06 09:42:52;;;;;;;7.57;5.03;;;4.40;51.90;;;;;;4986108;28;20269;-89
2021/03/06 09:45:18;;;;;;;9.50;5.10;;;4.60;51.50;;;;;;4986644;28;20221;-89
2021/03/06 09:47:45;;;;;;;5.67;5.03;;;4.80;50.90;;;;;;4986647;28;20171;-90
2021/03/06 09:50:12;;;;;;;6.77;5.50;;;4.80;50.50;;;;;;4984674;28;20203;-93
2021/03/06 09:52:38;;;;;;;6.40;5.80;;;4.90;51.20;;;;;;5002634;28;20187;-91
2021/03/06 09:55:15;;;;;;;7.13;5.23;;;5.10;50.10;;;;;;5002826;28;20206;-92
2021/03/06 09:57:41;;;;;;;7.17;6.57;;;5.30;49.50;;;;;;4985772;28;20218;-91
2021/03/06 10:00:07;;;;;;;5.63;5.13;;;5.50;48.80;;;;;;5001968;28;20278;-90
2021/03/06 10:02:33;;;;;;;6.13;5.53;;;5.60;48.70;;;;;;4987156;28;20191;-91
2021/03/06 10:04:59;;;;;;;6.53;4.73;;;5.80;48.30;;;;;;5002543;28;20187;-90
2021/03/06 10:07:25;;;;;;;6.17;5.57;;;5.90;47.50;;;;;;4988636;28;20210;-90
2021/03/06 10:09:51;;;;;;;5.83;5.33;;;6.00;47.70;;;;;;5003498;28;20202;-91
2021/03/06 10:12:18;;;;;;;6.97;5.67;;;6.10;47.80;;;;;;4986821;28;20195;-90
2021/03/06 10:14:49;;;;;;;7.17;5.80;;;6.10;45.00;;;;;;5003616;28;20713;-89
2021/03/06 10:17:22;;;;;;;6.37;5.60;;;6.30;45.70;;;;;;4988216;28;20195;-90
2021/03/06 10:19:52;;;;;;;6.00;5.50;;;6.40;44.60;;;;;;4988819;28;20202;-90
2021/03/06 10:22:19;;;;;;;5.80;5.30;;;6.50;44.00;;;;;;4987477;28;20178;-90
2021/03/06 10:24:51;;;;;;;5.33;4.83;;;6.80;43.70;;;;;;4986599;28;20199;-90
2021/03/06 10:27:18;;;;;;;7.83;4.67;;;6.90;43.00;;;;;;4983862;28;20183;-91
2021/03/06 10:29:43;;;;;;;5.50;5.00;;;7.20;42.10;;;;;;4988052;28;20207;-89
2021/03/06 10:32:09;;;;;;;6.13;5.60;;;7.20;42.90;;;;;;5003105;28;20556;-90
2021/03/06 10:34:36;;;;;;;8.13;5.13;;;7.50;42.00;;;;;;4987706;28;20222;-91
2021/03/06 10:37:09;;;;;;;7.23;5.33;;;7.30;41.40;;;;;;4987293;28;20196;-90
2021/03/06 10:39:50;;;;;;;5.53;5.03;;;7.40;40.10;;;;;;4968736;29;20223;-90
2021/03/06 10:42:16;;;;;;;5.63;4.87;;;7.40;40.30;;;;;;4967601;28;20187;-90
2021/03/06 10:44:42;;;;;;;4.87;4.47;;;7.30;40.40;;;;;;4965597;28;20558;-90
2021/03/06 10:47:08;;;;;;;5.47;4.60;;;7.40;41.20;;;;;;4966144;29;20192;-90
2021/03/06 10:49:48;;;;;;;5.30;4.80;;;7.60;40.20;;;;;;4967166;29;20208;-90
2021/03/06 10:52:29;;;;;;;5.27;4.87;;;7.60;39.20;;;;;;4967323;29;20184;-90
2021/03/06 10:54:58;;;;;;;5.40;4.90;;;7.70;40.40;;;;;;4972322;29;20199;-90
2021/03/06 10:57:27;;;;;;;6.50;5.77;;;8.10;39.30;;;;;;4966340;28;20194;-90
2021/03/06 10:59:54;;;;;;;5.73;4.60;;;8.10;39.40;;;;;;4965227;29;20227;-90
2021/03/06 11:02:24;;;;;;;5.70;5.10;;;8.30;38.50;;;;;;4965530;29;20192;-90
2021/03/06 11:04:49;;;;;;;5.10;4.70;;;8.20;38.40;;;;;;4967010;29;20242;-90
2021/03/06 11:07:26;;;;;;;7.63;5.57;;;8.50;38.20;;;;;;4967168;29;20188;-89
2021/03/06 11:09:57;;;;;;;6.07;5.47;;;8.50;38.00;;;;;;4967963;29;20203;-89
2021/03/06 11:12:30;;;;;;;5.77;5.27;;;8.70;38.50;;;;;;4978273;28;20206;-90
2021/03/06 11:15:12;;;;;;;5.70;5.20;;;9.10;37.80;;;;;;4987986;28;20195;-90
2021/03/06 11:17:40;;;;;;;5.60;5.00;;;9.20;37.80;;;;;;4988643;28;20200;-90
2021/03/06 11:20:07;;;;;;;6.87;5.20;;;9.10;37.60;;;;;;4988043;28;20202;-90
2021/03/06 11:22:33;;;;;;;5.50;5.00;;;9.50;38.10;;;;;;4986173;28;20253;-90
2021/03/06 11:24:59;;;;;;;5.70;5.30;;;9.70;36.70;;;;;;4986426;28;20193;-90
2021/03/06 11:27:25;;;;;;;5.77;4.77;;;9.80;35.80;;;;;;4985651;28;20186;-90
2021/03/06 11:29:51;;;;;;;5.67;5.27;;;9.70;36.80;;;;;;4986268;28;20223;-90
2021/03/06 11:32:20;;;;;;;7.30;5.17;;;9.80;36.30;;;;;;4987049;28;20194;-90
2021/03/06 11:34:46;;;;;;;6.83;4.83;;;9.80;35.90;;;;;;5000053;28;20286;-90
2021/03/06 11:37:12;;;;;;;6.77;5.10;;;9.50;36.30;;;;;;4986930;28;20206;-90
2021/03/06 11:39:38;;;;;;;7.50;5.13;;;9.60;36.80;;;;;;4985741;28;20207;-90
2021/03/06 11:42:06;;;;;;;5.50;5.00;;;9.80;36.90;;;;;;4988439;28;20253;-90
2021/03/06 11:44:31;;;;;;;5.23;4.73;;;9.70;34.40;;;;;;4986091;28;20195;-90
2021/03/06 11:46:57;;;;;;;5.27;4.67;;;9.70;35.50;;;;;;4969111;28;20687;-90
2021/03/06 11:49:23;;;;;;;14.47;5.57;;;9.90;36.50;;;;;;4986682;28;20559;-91
2021/03/06 11:51:49;;;;;;;5.73;5.23;;;10.30;34.90;;;;;;5001372;28;20198;-90
2021/03/06 11:54:14;;;;;;;5.10;4.60;;;10.50;33.70;;;;;;5000023;28;20306;-91
2021/03/06 11:56:40;;;;;;;4.83;4.43;;;10.50;34.30;;;;;;5001030;28;20194;-90
2021/03/06 11:59:06;;;;;;;5.17;4.70;;;10.50;31.80;;;;;;4985249;28;20213;-89
2021/03/06 12:01:31;;;;;;;7.67;5.10;;;10.70;32.60;;;;;;5002957;28;20175;-90
2021/03/06 12:03:57;;;;;;;5.20;4.70;;;10.00;34.20;;;;;;4985987;28;20187;-90
2021/03/06 12:06:23;;;;;;;9.37;5.43;;;10.10;34.70;;;;;;4987593;28;20206;-94
2021/03/06 12:08:51;;;;;;;5.70;5.20;;;10.00;34.60;;;;;;4988126;28;20171;-92
2021/03/06 12:11:17;;;;;;;6.47;5.23;;;10.50;34.70;;;;;;4985922;28;20191;-91
2021/03/06 12:13:42;;;;;;;4.93;4.50;;;10.70;33.50;;;;;;5001869;28;20230;-90
2021/03/06 12:16:08;;;;;;;6.10;4.63;;;11.00;31.30;;;;;;5001368;28;20179;-90
2021/03/06 12:18:34;;;;;;;5.80;5.10;;;11.20;31.20;;;;;;4987321;28;20655;-90
2021/03/06 12:21:00;;;;;;;6.03;5.43;;;11.30;31.90;;;;;;4992768;28;20218;-91
2021/03/06 12:23:25;;;;;;;5.43;4.73;;;11.50;31.70;;;;;;4987621;28;20187;-91
2021/03/06 12:25:51;;;;;;;4.30;4.00;;;11.70;31.30;;;;;;4987865;28;20364;-91
2021/03/06 12:28:17;;;;;;;8.23;4.87;;;11.60;30.70;;;;;;4991718;28;20194;-90
2021/03/06 12:30:43;;;;;;;4.47;4.17;;;11.50;30.50;;;;;;4989076;28;20222;-90
2021/03/06 12:33:08;;;;;;;4.60;4.20;;;12.00;30.20;;;;;;4987908;28;20211;-90
2021/03/06 12:35:34;;;;;;;4.40;4.00;;;11.80;28.50;;;;;;5002706;28;20179;-91
2021/03/06 12:38:00;;;;;;;4.87;4.47;;;11.70;28.60;;;;;;4986608;28;20179;-91
2021/03/06 12:40:26;;;;;;;5.33;4.20;;;11.70;28.60;;;;;;4986322;28;20211;-91
2021/03/06 12:42:52;;;;;;;5.13;4.57;;;11.80;29.20;;;;;;4971261;28;20198;-91
2021/03/06 12:45:18;;;;;;;4.47;4.07;;;12.10;29.70;;;;;;4986312;28;20183;-91
2021/03/06 12:47:44;;;;;;;4.77;4.37;;;12.10;29.20;;;;;;4986498;28;20187;-91
2021/03/06 12:50:10;;;;;;;4.20;3.80;;;11.90;28.70;;;;;;5002498;28;20622;-91
2021/03/06 12:52:36;;;;;;;4.33;3.93;;;12.10;28.70;;;;;;4987455;28;20182;-90
2021/03/06 12:55:04;;;;;;;4.83;4.20;;;12.80;28.40;;;;;;4987074;28;20227;-90
2021/03/06 12:57:30;;;;;;;5.67;4.30;;;12.90;28.40;;;;;;4988138;28;20267;-91
2021/03/06 12:59:56;;;;;;;5.03;4.60;;;12.80;27.60;;;;;;5002156;28;20231;-91
2021/03/06 13:02:22;;;;;;;7.20;6.47;;;12.80;27.90;;;;;;4985282;28;20200;-90
2021/03/06 13:04:47;;;;;;;26.33;21.43;;;12.50;28.10;;;;;;4986048;28;20217;-90